Maryville, Iowa
Current Conditions -  °F | °C
As of 12:35 AM on Wednesday 26 Nov 2014 (Local Time) from KOLZ Reporting Station
Clear Clear  
Wind Chill: 10°   Ceiling: Unl
Heat Index: 21°   Visibility: 10mi
Dew Point: 18°   Wind: 10mph
Humidity: 86%   Direction: 150°SSE
Pressure: 30.06"   Gusts: NA
Location:  42.7309°N, 91.6667°W
Report Text: KOLZ 260635Z AUTO 15009KT 10SM CLR M06/M08 A3006 RMK AO2
Loading
Personal Weather Stations






























Interactive Weather Map New forecast layout! Learn more

10-Day Weather Forecast

Advertisements
Track Severe Weather on mobile